Time;durP1;ratioP1;P1;durP2;ratioP2;P2;SDS_P1;SDS_P2;PMS_P1;PMS_P2;Temp;Humidity;BMP_temperature;BMP_pressure;BME280_temperature;BME280_humidity;BME280_pressure;Samples;Min_cycle;Max_cycle;Signal;HPM_P1;HPM_P2
2024/04/10 00:01:34;;;;;;;0.40;0.40;;;9.10;99.90;;;;;;5460093;26;20508;-83
2024/04/10 00:03:59;;;;;;;0.40;0.40;;;9.10;99.90;;;;;;5459938;26;20501;-84
2024/04/10 00:06:28;;;;;;;0.60;0.50;;;9.10;99.90;;;;;;5459904;26;20571;-84
2024/04/10 00:08:54;;;;;;;0.70;0.50;;;9.00;99.90;;;;;;5460701;26;20457;-83
2024/04/10 00:11:24;;;;;;;2.10;0.50;;;9.00;99.90;;;;;;5460738;26;20804;-84
2024/04/10 00:13:50;;;;;;;0.50;0.50;;;9.00;99.90;;;;;;5460245;26;20235;-85
2024/04/10 00:16:21;;;;;;;1.33;0.50;;;9.00;99.90;;;;;;5460302;26;20449;-83
2024/04/10 00:18:47;;;;;;;0.63;0.50;;;8.90;99.90;;;;;;5461039;26;20208;-83
2024/04/10 00:21:16;;;;;;;0.50;0.40;;;8.90;99.90;;;;;;5460239;26;20517;-83
2024/04/10 00:23:41;;;;;;;2.23;0.50;;;8.80;99.90;;;;;;5460970;26;20242;-83
2024/04/10 00:26:10;;;;;;;0.60;0.50;;;8.80;99.90;;;;;;5459839;26;20449;-83
2024/04/10 00:28:36;;;;;;;1.27;0.60;;;8.80;99.90;;;;;;5459972;26;20283;-83
2024/04/10 00:31:08;;;;;;;0.60;0.60;;;8.80;99.90;;;;;;5459781;26;20461;-83
2024/04/10 00:33:38;;;;;;;2.17;0.93;;;8.80;99.90;;;;;;5464156;26;20595;-83
2024/04/10 00:36:07;;;;;;;0.47;0.40;;;8.80;99.90;;;;;;5461189;26;20421;-83
2024/04/10 00:38:33;;;;;;;0.90;0.60;;;8.80;99.90;;;;;;5461037;26;20449;-83
2024/04/10 00:41:03;;;;;;;1.90;0.70;;;8.80;99.90;;;;;;5459845;26;20495;-83
2024/04/10 00:43:30;;;;;;;0.60;0.60;;;8.80;99.90;;;;;;5460970;26;20262;-82
2024/04/10 00:46:02;;;;;;;0.93;0.40;;;8.90;99.90;;;;;;5460196;26;20513;-82
2024/04/10 00:48:28;;;;;;;0.50;0.50;;;8.70;99.90;;;;;;5465292;26;20437;-82
2024/04/10 00:51:00;;;;;;;0.80;0.53;;;8.70;99.90;;;;;;5462367;26;20540;-83
2024/04/10 00:53:26;;;;;;;0.70;0.70;;;8.70;99.90;;;;;;5461955;26;20488;-84
2024/04/10 00:55:55;;;;;;;0.60;0.60;;;8.60;99.90;;;;;;5461471;26;20457;-82
2024/04/10 00:58:21;;;;;;;0.50;0.50;;;8.60;99.90;;;;;;5460530;26;20453;-82
2024/04/10 01:00:49;;;;;;;0.43;0.43;;;8.60;99.90;;;;;;5461185;26;20517;-82
2024/04/10 01:03:15;;;;;;;0.40;0.40;;;8.50;99.90;;;;;;5459747;26;20304;-82
2024/04/10 01:05:43;;;;;;;0.77;0.40;;;8.50;99.90;;;;;;5460141;26;20465;-83
2024/04/10 01:08:12;;;;;;;0.47;0.47;;;8.40;99.90;;;;;;5461612;26;20561;-84
2024/04/10 01:10:40;;;;;;;1.03;0.80;;;8.40;99.90;;;;;;5460055;26;20484;-84
2024/04/10 01:13:06;;;;;;;1.90;0.77;;;8.40;99.90;;;;;;5459300;26;20445;-82
2024/04/10 01:15:35;;;;;;;1.10;0.93;;;8.40;99.90;;;;;;5458890;26;20932;-82
2024/04/10 01:18:01;;;;;;;0.50;0.50;;;8.30;99.90;;;;;;5461060;26;20231;-84
2024/04/10 01:20:29;;;;;;;0.50;0.50;;;8.20;99.90;;;;;;5459416;26;20481;-82
2024/04/10 01:23:02;;;;;;;0.70;0.60;;;8.30;99.90;;;;;;5459906;26;20563;-83
2024/04/10 01:25:30;;;;;;;0.50;0.50;;;8.20;99.90;;;;;;5458809;26;20842;-81
2024/04/10 01:27:56;;;;;;;0.70;0.53;;;8.10;99.90;;;;;;5457129;26;20898;-82
2024/04/10 01:30:26;;;;;;;1.33;0.50;;;8.00;99.90;;;;;;5456818;26;20469;-82
2024/04/10 01:32:51;;;;;;;0.77;0.70;;;8.10;99.90;;;;;;5457333;26;20501;-82
2024/04/10 01:35:20;;;;;;;1.17;0.70;;;8.00;99.90;;;;;;5456723;26;20449;-82
2024/04/10 01:37:46;;;;;;;0.90;0.90;;;8.00;99.90;;;;;;5457152;26;20328;-81
2024/04/10 01:40:17;;;;;;;1.80;0.63;;;7.90;99.90;;;;;;5457105;26;20901;-82
2024/04/10 01:42:44;;;;;;;0.60;0.60;;;7.90;99.90;;;;;;5456875;26;20184;-82
2024/04/10 01:45:12;;;;;;;1.03;0.40;;;7.80;99.90;;;;;;5457139;26;20496;-82
2024/04/10 01:47:38;;;;;;;0.50;0.50;;;7.80;99.90;;;;;;5457998;26;20557;-82
2024/04/10 01:50:08;;;;;;;4.77;0.73;;;7.80;99.90;;;;;;5458960;26;20461;-82
2024/04/10 01:52:34;;;;;;;0.50;0.50;;;7.80;99.90;;;;;;5461222;26;20984;-82
2024/04/10 01:55:02;;;;;;;0.70;0.70;;;7.80;99.90;;;;;;5460115;26;20567;-83
2024/04/10 01:57:30;;;;;;;0.90;0.80;;;7.80;99.90;;;;;;5460019;26;20457;-82
2024/04/10 01:59:59;;;;;;;0.50;0.50;;;7.80;99.90;;;;;;5458813;26;20820;-82
2024/04/10 02:02:25;;;;;;;0.60;0.50;;;7.80;99.90;;;;;;5458663;26;20461;-83
2024/04/10 02:04:53;;;;;;;0.50;0.50;;;7.90;99.90;;;;;;5458582;26;20936;-85
2024/04/10 02:07:19;;;;;;;1.17;0.87;;;7.90;99.90;;;;;;5460365;26;20315;-82
2024/04/10 02:09:47;;;;;;;3.07;0.60;;;7.80;99.90;;;;;;5461483;26;20876;-82
2024/04/10 02:12:13;;;;;;;0.43;0.43;;;7.80;99.90;;;;;;5461676;26;20594;-82
2024/04/10 02:14:44;;;;;;;1.10;0.87;;;7.90;99.90;;;;;;5462684;26;20567;-83
2024/04/10 02:17:10;;;;;;;1.33;0.60;;;7.90;99.90;;;;;;5461244;26;20220;-83
2024/04/10 02:19:39;;;;;;;1.37;0.80;;;8.00;99.90;;;;;;5461315;26;20503;-82
2024/04/10 02:22:06;;;;;;;0.70;0.40;;;8.00;99.90;;;;;;5459568;26;20665;-82
2024/04/10 02:24:34;;;;;;;0.60;0.60;;;7.90;99.90;;;;;;5460701;26;20457;-83
2024/04/10 02:27:00;;;;;;;0.97;0.60;;;7.90;99.90;;;;;;5460278;26;21023;-83
2024/04/10 02:29:30;;;;;;;1.10;1.00;;;7.90;99.90;;;;;;5461517;26;20563;-82
2024/04/10 02:31:59;;;;;;;0.40;0.40;;;7.90;99.90;;;;;;5460292;26;20506;-83
2024/04/10 02:34:28;;;;;;;0.43;0.43;;;7.90;99.90;;;;;;5460433;26;20508;-83
2024/04/10 02:36:54;;;;;;;0.50;0.50;;;7.80;99.90;;;;;;5460841;26;20553;-82
2024/04/10 02:39:22;;;;;;;0.93;0.40;;;7.80;99.90;;;;;;5460924;26;20465;-82
2024/04/10 02:41:49;;;;;;;1.37;0.70;;;7.70;99.90;;;;;;5459514;26;20239;-83
2024/04/10 02:44:17;;;;;;;0.90;0.70;;;7.60;99.90;;;;;;5460912;26;20798;-81
2024/04/10 02:46:43;;;;;;;2.50;0.70;;;7.80;99.90;;;;;;5461460;26;20441;-82
2024/04/10 02:49:14;;;;;;;0.50;0.50;;;7.70;99.90;;;;;;5462703;26;20569;-83
2024/04/10 02:51:40;;;;;;;0.60;0.40;;;7.70;99.90;;;;;;5460694;26;20228;-82
2024/04/10 02:54:08;;;;;;;0.37;0.37;;;7.70;99.90;;;;;;5460976;26;20518;-82
2024/04/10 02:56:34;;;;;;;1.47;0.60;;;7.60;99.90;;;;;;5459657;26;20688;-83
2024/04/10 02:59:03;;;;;;;0.40;0.40;;;7.60;99.90;;;;;;5460306;26;20505;-83
2024/04/10 03:01:29;;;;;;;0.63;0.60;;;7.60;99.90;;;;;;5463046;26;20303;-82
2024/04/10 03:03:57;;;;;;;1.23;0.50;;;7.60;99.90;;;;;;5461881;26;20561;-82
2024/04/10 03:06:26;;;;;;;2.17;0.53;;;7.60;99.90;;;;;;5467810;26;20445;-83
2024/04/10 04:14:27;;;;;;;0.50;0.50;;;7.10;99.90;;;;;;884331;21;22115;-86
2024/04/10 04:16:53;;;;;;;0.50;0.50;;;7.00;99.90;;;;;;5278604;27;20960;-85
2024/04/10 04:19:22;;;;;;;0.80;0.43;;;7.00;99.90;;;;;;5280377;27;20572;-84
2024/04/10 04:21:47;;;;;;;0.50;0.40;;;7.00;99.90;;;;;;5280751;27;20285;-83
2024/04/10 04:24:16;;;;;;;1.50;1.00;;;7.00;99.90;;;;;;5280533;27;20560;-84
2024/04/10 04:26:42;;;;;;;0.57;0.40;;;7.00;99.90;;;;;;5280566;27;20216;-85
2024/04/10 04:29:11;;;;;;;1.23;0.50;;;7.10;99.90;;;;;;5280023;27;20460;-84
2024/04/10 04:31:39;;;;;;;0.60;0.50;;;7.10;99.90;;;;;;5280778;27;20221;-84
2024/04/10 04:34:12;;;;;;;3.40;0.70;;;7.20;99.90;;;;;;5280719;27;20455;-84
2024/04/10 04:36:39;;;;;;;1.23;0.50;;;7.30;99.90;;;;;;5280603;27;20451;-84
2024/04/10 04:39:08;;;;;;;1.70;1.00;;;7.30;99.90;;;;;;5281097;27;20508;-84
2024/04/10 04:41:34;;;;;;;0.40;0.40;;;7.30;99.90;;;;;;5280646;27;20456;-84
2024/04/10 04:44:02;;;;;;;1.33;0.57;;;7.30;99.90;;;;;;5280352;27;20883;-84
2024/04/10 04:46:29;;;;;;;0.50;0.50;;;7.30;99.90;;;;;;5280660;27;20669;-84
2024/04/10 04:49:00;;;;;;;0.40;0.40;;;7.30;99.90;;;;;;5280622;27;20996;-83
2024/04/10 04:51:28;;;;;;;0.93;0.50;;;7.30;99.90;;;;;;5281449;27;20981;-83
2024/04/10 04:53:56;;;;;;;0.83;0.43;;;7.30;99.90;;;;;;5282357;27;20460;-84
2024/04/10 04:56:22;;;;;;;0.70;0.70;;;7.20;99.90;;;;;;5281890;27;20817;-83
2024/04/10 04:58:51;;;;;;;2.50;0.63;;;7.30;99.90;;;;;;5281425;27;20535;-83
2024/04/10 05:01:16;;;;;;;0.60;0.50;;;7.30;99.90;;;;;;5281612;27;20276;-84
2024/04/10 05:06:32;;;;;;;0.80;0.70;;;7.20;99.90;;;;;;5284235;27;20212;-84
2024/04/10 05:09:00;;;;;;;1.33;0.70;;;7.20;99.90;;;;;;5281291;27;20448;-84
2024/04/10 05:11:26;;;;;;;0.93;0.93;;;7.30;99.90;;;;;;5281360;27;20797;-84
2024/04/10 05:13:54;;;;;;;0.80;0.53;;;7.30;99.90;;;;;;5281354;27;20515;-84
2024/04/10 05:16:20;;;;;;;2.47;0.47;;;7.40;99.90;;;;;;5281173;27;20669;-84
2024/04/10 05:18:49;;;;;;;2.53;1.10;;;7.50;99.90;;;;;;5280879;27;20448;-84
2024/04/10 05:21:14;;;;;;;0.63;0.50;;;7.50;99.90;;;;;;5280887;27;20780;-83
2024/04/10 05:23:46;;;;;;;1.37;0.50;;;7.60;99.90;;;;;;5280977;27;20561;-83
2024/04/10 05:26:12;;;;;;;0.60;0.57;;;7.60;99.90;;;;;;5281064;27;20220;-84
2024/04/10 05:28:42;;;;;;;0.70;0.57;;;7.70;99.90;;;;;;5280897;27;20460;-83
2024/04/10 05:31:09;;;;;;;0.60;0.60;;;7.70;99.90;;;;;;5280636;27;20255;-83
2024/04/10 05:33:38;;;;;;;0.70;0.70;;;7.80;99.90;;;;;;5281043;27;20475;-83
2024/04/10 05:36:05;;;;;;;0.40;0.40;;;7.80;99.90;;;;;;5280687;27;20504;-83
2024/04/10 05:38:33;;;;;;;0.50;0.50;;;7.80;99.90;;;;;;5281309;27;20452;-83
2024/04/10 05:41:03;;;;;;;1.40;0.40;;;7.80;99.90;;;;;;5278974;27;21052;-83
2024/04/10 05:43:31;;;;;;;0.80;0.47;;;7.90;99.90;;;;;;5280414;27;20475;-84
2024/04/10 05:45:57;;;;;;;0.47;0.47;;;7.90;99.90;;;;;;5280111;27;20859;-83
2024/04/10 05:48:26;;;;;;;0.50;0.40;;;8.00;99.90;;;;;;5279814;27;20452;-84
2024/04/10 05:50:56;;;;;;;4.97;0.63;;;8.10;99.90;;;;;;5281214;27;20357;-83
2024/04/10 05:53:25;;;;;;;0.93;0.57;;;8.20;99.90;;;;;;5280278;27;20520;-84
2024/04/10 05:55:50;;;;;;;0.70;0.47;;;8.30;99.90;;;;;;5281127;27;20524;-84
2024/04/10 05:58:21;;;;;;;0.70;0.63;;;8.30;99.90;;;;;;5280067;27;21080;-84
2024/04/10 06:00:47;;;;;;;2.03;0.50;;;8.40;99.90;;;;;;5280481;27;20280;-81
2024/04/10 06:03:16;;;;;;;1.13;0.70;;;8.40;99.90;;;;;;5279286;27;20468;-81
2024/04/10 06:05:41;;;;;;;2.20;0.67;;;8.50;99.90;;;;;;5279490;27;20264;-81
2024/04/10 06:08:10;;;;;;;0.50;0.40;;;8.50;99.90;;;;;;5279411;27;20929;-81
2024/04/10 06:10:36;;;;;;;0.50;0.50;;;8.60;99.90;;;;;;5281476;27;20336;-80
2024/04/10 06:13:04;;;;;;;0.50;0.50;;;8.60;99.90;;;;;;5280637;27;20464;-80
2024/04/10 06:15:33;;;;;;;2.73;0.50;;;8.70;99.90;;;;;;5279900;27;20244;-80
2024/04/10 06:18:02;;;;;;;2.87;1.13;;;8.80;99.90;;;;;;5280769;27;20444;-80
2024/04/10 06:20:27;;;;;;;1.03;0.67;;;8.80;99.90;;;;;;5280234;27;20793;-81
2024/04/10 06:22:56;;;;;;;1.80;0.50;;;8.80;99.90;;;;;;5280372;27;20512;-82
2024/04/10 06:25:21;;;;;;;0.73;0.67;;;8.80;99.90;;;;;;5280732;27;20281;-81
2024/04/10 06:27:50;;;;;;;0.83;0.60;;;8.90;99.90;;;;;;5280458;27;20568;-82
2024/04/10 06:30:16;;;;;;;0.50;0.50;;;8.90;99.90;;;;;;5280610;27;20237;-81
2024/04/10 06:32:47;;;;;;;0.40;0.40;;;8.90;99.90;;;;;;5280513;27;20813;-81
2024/04/10 06:35:14;;;;;;;0.83;0.77;;;9.10;99.90;;;;;;5280345;27;20236;-82
2024/04/10 06:37:42;;;;;;;1.17;0.77;;;9.20;99.90;;;;;;5279562;27;20448;-82
2024/04/10 06:40:08;;;;;;;0.50;0.50;;;9.30;99.90;;;;;;5279671;27;20456;-81
2024/04/10 06:42:37;;;;;;;1.67;0.63;;;9.40;99.90;;;;;;5279089;27;20476;-82
2024/04/10 06:45:03;;;;;;;1.23;0.50;;;9.50;99.90;;;;;;5279521;27;20519;-81
2024/04/10 06:47:31;;;;;;;0.77;0.73;;;9.60;99.90;;;;;;5279648;27;20468;-82
2024/04/10 06:50:01;;;;;;;1.57;0.57;;;9.70;99.90;;;;;;5279360;27;20499;-82
2024/04/10 06:52:29;;;;;;;0.50;0.50;;;9.80;99.90;;;;;;5281714;27;21011;-81
2024/04/10 06:54:55;;;;;;;1.73;0.90;;;9.90;99.90;;;;;;5282869;27;20504;-81
2024/04/10 06:57:23;;;;;;;0.50;0.50;;;9.90;99.90;;;;;;5284441;27;20999;-81
2024/04/10 06:59:49;;;;;;;1.23;0.70;;;10.00;99.90;;;;;;5283714;27;20515;-81
2024/04/10 07:02:18;;;;;;;0.90;0.50;;;10.10;99.90;;;;;;5284013;27;20819;-81
2024/04/10 07:04:45;;;;;;;4.60;0.77;;;10.20;99.90;;;;;;5282793;27;20581;-81
2024/04/10 07:07:16;;;;;;;3.17;0.70;;;10.30;99.90;;;;;;5283258;27;20468;-82
2024/04/10 07:09:42;;;;;;;2.53;0.50;;;10.40;99.90;;;;;;5282589;27;20459;-81
2024/04/10 07:12:11;;;;;;;2.00;0.60;;;10.60;99.90;;;;;;5282802;27;20584;-81
2024/04/10 07:14:39;;;;;;;0.50;0.50;;;10.70;99.90;;;;;;5282207;27;20288;-81
2024/04/10 07:17:08;;;;;;;2.27;1.07;;;10.70;99.90;;;;;;5282818;27;20523;-81
2024/04/10 07:19:34;;;;;;;3.30;0.50;;;10.70;99.90;;;;;;5282811;27;20909;-81
2024/04/10 07:22:05;;;;;;;0.70;0.40;;;10.90;99.90;;;;;;5282557;27;20516;-81
2024/04/10 07:24:34;;;;;;;1.50;0.57;;;11.00;99.90;;;;;;5282871;27;20870;-81
2024/04/10 07:27:02;;;;;;;6.57;0.77;;;11.00;99.90;;;;;;5282498;27;20567;-80
2024/04/10 07:29:30;;;;;;;0.50;0.50;;;11.10;99.90;;;;;;5282179;27;20444;-80
2024/04/10 07:31:58;;;;;;;2.00;0.60;;;11.20;99.90;;;;;;5281801;27;20527;-80
2024/04/10 07:34:24;;;;;;;3.23;0.57;;;11.30;99.90;;;;;;5281723;27;20460;-81
2024/04/10 07:36:52;;;;;;;1.83;0.60;;;11.40;99.90;;;;;;5281586;27;20460;-80
2024/04/10 07:39:19;;;;;;;12.47;1.40;;;11.40;99.90;;;;;;5282511;27;20217;-81
2024/04/10 07:41:50;;;;;;;1.97;0.57;;;11.60;99.90;;;;;;5281413;27;20555;-80
2024/04/10 07:44:16;;;;;;;2.73;0.83;;;11.70;99.90;;;;;;5282331;27;20455;-81
2024/04/10 07:46:46;;;;;;;6.80;0.73;;;11.80;99.90;;;;;;5281819;27;20501;-80
2024/04/10 07:49:13;;;;;;;4.07;1.37;;;11.90;99.90;;;;;;5281877;27;20504;-81
2024/04/10 07:51:41;;;;;;;3.47;0.90;;;12.00;99.90;;;;;;5281291;27;20445;-81
2024/04/10 07:54:07;;;;;;;2.50;0.83;;;12.10;99.90;;;;;;5282248;27;20527;-80
2024/04/10 07:56:35;;;;;;;0.90;0.50;;;12.30;99.90;;;;;;5282012;27;20460;-80
2024/04/10 07:59:04;;;;;;;0.60;0.50;;;12.50;99.90;;;;;;5281245;27;20217;-81
2024/04/10 08:01:32;;;;;;;4.80;1.10;;;12.80;99.90;;;;;;5281538;27;20527;-80
2024/04/10 08:04:02;;;;;;;4.80;0.60;;;13.20;99.90;;;;;;5281641;27;20571;-80
2024/04/10 08:06:36;;;;;;;2.93;0.60;;;13.60;99.90;;;;;;5282374;27;20452;-80
2024/04/10 08:09:02;;;;;;;0.70;0.50;;;13.90;99.90;;;;;;5282489;27;20781;-80
2024/04/10 08:11:30;;;;;;;0.70;0.60;;;14.20;99.90;;;;;;5281670;27;20492;-80
2024/04/10 08:13:56;;;;;;;1.90;0.70;;;14.20;99.90;;;;;;5282724;27;20681;-79
2024/04/10 08:16:28;;;;;;;3.93;0.50;;;14.50;99.90;;;;;;5282426;27;20468;-80
2024/04/10 08:18:54;;;;;;;1.60;0.60;;;14.60;99.90;;;;;;5282418;27;20213;-81
2024/04/10 08:21:22;;;;;;;2.43;1.33;;;14.70;99.90;;;;;;5283104;27;20553;-83
2024/04/10 08:23:49;;;;;;;0.73;0.50;;;14.80;99.90;;;;;;5281781;27;20292;-79
2024/04/10 08:26:18;;;;;;;1.10;0.63;;;15.00;99.90;;;;;;5281258;27;20452;-78
2024/04/10 08:28:46;;;;;;;0.63;0.63;;;15.00;99.90;;;;;;5280937;27;20440;-78
2024/04/10 08:31:15;;;;;;;2.40;0.63;;;15.20;99.90;;;;;;5280812;27;20456;-78
2024/04/10 08:33:44;;;;;;;0.90;0.57;;;15.30;99.90;;;;;;5280532;27;20512;-78
2024/04/10 08:36:13;;;;;;;3.90;0.97;;;15.20;99.90;;;;;;5280438;27;20984;-78
2024/04/10 08:38:39;;;;;;;0.70;0.60;;;15.20;99.90;;;;;;5281022;27;20562;-78
2024/04/10 08:41:12;;;;;;;1.50;0.50;;;15.00;99.90;;;;;;5280735;27;20472;-78
2024/04/10 08:43:41;;;;;;;4.50;0.60;;;15.00;99.90;;;;;;5280135;27;20237;-78
2024/04/10 08:46:11;;;;;;;2.23;0.57;;;15.20;99.90;;;;;;5279858;27;20872;-79
2024/04/10 08:48:38;;;;;;;3.60;0.70;;;15.50;99.90;;;;;;5279899;27;20460;-78
2024/04/10 08:51:13;;;;;;;3.33;0.70;;;15.20;99.70;;;;;;5280186;27;20562;-78
2024/04/10 08:53:41;;;;;;;6.80;0.73;;;14.90;99.90;;;;;;5279710;27;20508;-78
2024/04/10 08:56:09;;;;;;;2.87;0.50;;;14.80;99.90;;;;;;5279656;27;20523;-79
2024/04/10 08:58:35;;;;;;;2.70;0.70;;;14.80;99.40;;;;;;5279923;27;20538;-78
2024/04/10 09:01:03;;;;;;;2.40;0.50;;;14.60;99.10;;;;;;5280247;27;20464;-78
2024/04/10 09:03:29;;;;;;;1.40;0.57;;;14.40;99.10;;;;;;5279538;27;20230;-78
2024/04/10 09:06:05;;;;;;;2.03;0.50;;;14.50;99.00;;;;;;5279505;27;20449;-78
2024/04/10 09:08:34;;;;;;;4.13;0.60;;;15.30;98.70;;;;;;5279562;27;21152;-78
2024/04/10 09:11:02;;;;;;;0.90;0.53;;;16.70;97.60;;;;;;5279527;27;20452;-78
2024/04/10 09:13:28;;;;;;;0.80;0.60;;;18.00;95.90;;;;;;5279815;27;20514;-78
2024/04/10 09:15:59;;;;;;;4.73;0.57;;;19.30;94.30;;;;;;5279352;27;20539;-78
2024/04/10 09:18:26;;;;;;;2.63;0.83;;;20.20;91.50;;;;;;5279581;27;20456;-78
2024/04/10 09:21:10;;;;;;;1.03;0.50;;;20.40;88.40;;;;;;5279380;27;20520;-78
2024/04/10 09:23:39;;;;;;;1.90;0.57;;;19.70;82.40;;;;;;5279588;27;20460;-79
2024/04/10 09:26:08;;;;;;;1.13;0.40;;;18.50;80.30;;;;;;5279152;27;20452;-78
2024/04/10 09:28:34;;;;;;;0.70;0.50;;;17.80;83.90;;;;;;5279717;27;20456;-79
2024/04/10 09:31:03;;;;;;;0.43;0.43;;;18.20;85.20;;;;;;5279235;27;20456;-78
2024/04/10 09:33:34;;;;;;;3.63;0.80;;;18.90;85.80;;;;;;5279349;27;20515;-79
2024/04/10 09:36:05;;;;;;;1.43;0.60;;;19.10;81.00;;;;;;5279791;27;20431;-78
2024/04/10 09:38:35;;;;;;;0.50;0.50;;;18.60;81.90;;;;;;5279199;27;20592;-79
2024/04/10 09:41:06;;;;;;;3.40;0.50;;;18.00;82.80;;;;;;5278850;27;20464;-79
2024/04/10 09:43:32;;;;;;;1.33;0.77;;;17.40;84.00;;;;;;5279106;27;20585;-79
2024/04/10 09:46:02;;;;;;;1.90;0.50;;;16.90;84.50;;;;;;5278753;27;20464;-79
2024/04/10 09:48:32;;;;;;;1.37;0.40;;;16.30;84.20;;;;;;5279070;27;20252;-79
2024/04/10 09:51:05;;;;;;;0.70;0.60;;;15.70;84.40;;;;;;5278670;27;20456;-79
2024/04/10 09:53:33;;;;;;;1.00;0.40;;;15.70;85.10;;;;;;5279523;27;20483;-79
2024/04/10 09:56:02;;;;;;;2.37;0.60;;;16.60;84.70;;;;;;5280513;27;20460;-78
2024/04/10 09:58:32;;;;;;;0.80;0.60;;;17.60;81.10;;;;;;5280467;27;20504;-79
2024/04/10 10:01:03;;;;;;;1.50;0.50;;;18.30;81.20;;;;;;5281230;27;20596;-79
2024/04/10 10:03:29;;;;;;;5.27;0.60;;;19.20;79.20;;;;;;5279813;27;20484;-78
2024/04/10 10:06:06;;;;;;;1.77;0.50;;;19.80;75.60;;;;;;5278550;27;20464;-79
2024/04/10 10:08:33;;;;;;;1.67;0.50;;;19.90;75.80;;;;;;5278851;27;20456;-78
2024/04/10 10:11:01;;;;;;;3.23;0.80;;;20.00;74.30;;;;;;5279829;27;20783;-79
2024/04/10 10:13:28;;;;;;;1.57;0.50;;;20.30;71.80;;;;;;5278924;27;20468;-79
2024/04/10 10:16:06;;;;;;;1.67;0.60;;;20.30;71.60;;;;;;5278828;27;20550;-79
2024/04/10 10:18:32;;;;;;;3.90;0.50;;;20.40;70.10;;;;;;5279081;27;21064;-79
2024/04/10 10:21:05;;;;;;;2.97;0.40;;;20.40;68.70;;;;;;5279053;27;20578;-79
2024/04/10 10:23:31;;;;;;;3.93;0.60;;;20.20;71.50;;;;;;5279538;27;20377;-79
2024/04/10 10:26:00;;;;;;;0.50;0.43;;;20.10;66.20;;;;;;5279160;27;20464;-79
2024/04/10 10:28:26;;;;;;;1.33;0.40;;;20.20;66.80;;;;;;5281963;27;20220;-79
2024/04/10 10:30:54;;;;;;;1.77;0.50;;;20.20;67.50;;;;;;5281898;27;20508;-78
2024/04/10 10:33:23;;;;;;;0.60;0.40;;;20.60;66.10;;;;;;5281871;27;20574;-79
2024/04/10 10:35:51;;;;;;;1.20;0.47;;;21.10;67.00;;;;;;5282518;27;20979;-79
2024/04/10 10:38:17;;;;;;;0.50;0.40;;;21.40;65.30;;;;;;5282738;27;20464;-78
2024/04/10 10:40:45;;;;;;;2.10;0.50;;;21.90;62.50;;;;;;5283113;27;20931;-79
2024/04/10 10:43:11;;;;;;;0.40;0.40;;;22.20;61.60;;;;;;5281958;27;20340;-79
2024/04/10 10:45:40;;;;;;;1.42;0.43;;;22.20;60.50;;;;;;5281885;27;20236;-79
2024/04/10 10:48:07;;;;;;;0.70;0.50;;;22.40;60.40;;;;;;5281455;27;20272;-79
2024/04/10 10:50:38;;;;;;;1.00;0.47;;;23.00;59.50;;;;;;5281670;27;20228;-79
2024/04/10 10:53:07;;;;;;;2.63;0.57;;;23.30;59.00;;;;;;5281929;27;20225;-79
2024/04/10 10:55:35;;;;;;;0.60;0.40;;;23.20;56.80;;;;;;5281571;27;20213;-79
2024/04/10 10:58:01;;;;;;;1.83;0.60;;;23.00;58.30;;;;;;5280924;27;20216;-79
2024/04/10 11:00:33;;;;;;;0.50;0.40;;;22.30;56.40;;;;;;5282042;27;20276;-79
2024/04/10 11:03:05;;;;;;;1.13;1.03;;;21.40;56.10;;;;;;5281272;27;20780;-79
2024/04/10 11:05:33;;;;;;;1.70;0.50;;;20.50;58.10;;;;;;5281757;27;20506;-79
2024/04/10 11:08:02;;;;;;;1.97;0.57;;;19.90;58.40;;;;;;5281207;27;20538;-79
2024/04/10 11:10:31;;;;;;;3.07;0.47;;;19.30;60.90;;;;;;5281374;27;20511;-79
2024/04/10 11:13:01;;;;;;;0.40;0.40;;;18.80;60.00;;;;;;5281415;27;20922;-79
2024/04/10 11:15:30;;;;;;;0.53;0.40;;;18.30;60.90;;;;;;5280973;27;20471;-79
2024/04/10 11:18:03;;;;;;;3.03;0.53;;;18.00;60.80;;;;;;5280719;27;20811;-79
2024/04/10 11:20:32;;;;;;;2.20;0.60;;;17.60;61.40;;;;;;5281619;27;20456;-79
2024/04/10 11:23:01;;;;;;;1.27;0.40;;;17.50;63.00;;;;;;5281012;27;20524;-79
2024/04/10 11:25:31;;;;;;;0.70;0.50;;;17.40;62.90;;;;;;5280715;27;20832;-79
2024/04/10 11:27:57;;;;;;;1.33;0.40;;;17.30;61.70;;;;;;5281050;27;20496;-79
2024/04/10 11:30:25;;;;;;;0.83;0.50;;;17.30;62.40;;;;;;5281119;27;20854;-79
2024/04/10 11:32:51;;;;;;;0.40;0.30;;;17.30;64.50;;;;;;5282501;27;20522;-84
2024/04/10 11:35:20;;;;;;;0.70;0.40;;;17.20;64.70;;;;;;5282533;27;20567;-81
2024/04/10 11:37:49;;;;;;;2.33;1.13;;;17.10;65.30;;;;;;5282887;27;20216;-81
2024/04/10 11:40:22;;;;;;;0.60;0.30;;;17.20;63.00;;;;;;5282987;27;20515;-81
2024/04/10 11:42:48;;;;;;;1.07;0.50;;;17.10;61.10;;;;;;5283580;27;20512;-81
2024/04/10 11:45:18;;;;;;;0.90;0.43;;;17.20;60.20;;;;;;5283324;27;20464;-81
2024/04/10 11:47:45;;;;;;;0.60;0.50;;;17.00;60.20;;;;;;5283126;27;20508;-81
2024/04/10 11:50:15;;;;;;;1.70;0.40;;;17.00;63.20;;;;;;5283149;27;20460;-81
2024/04/10 11:52:43;;;;;;;2.00;0.70;;;17.00;63.30;;;;;;5283019;27;20580;-81
2024/04/10 11:55:12;;;;;;;0.93;0.50;;;16.80;64.10;;;;;;5283308;27;20814;-81
2024/04/10 11:57:40;;;;;;;0.50;0.30;;;16.60;63.10;;;;;;5282944;27;20452;-81
2024/04/10 12:00:10;;;;;;;0.60;0.37;;;16.40;65.30;;;;;;5284062;27;20500;-81
2024/04/10 12:02:36;;;;;;;0.50;0.40;;;16.20;66.40;;;;;;5285399;27;20517;-81
2024/04/10 12:05:07;;;;;;;0.60;0.60;;;15.90;66.00;;;;;;5285393;27;20778;-81
2024/04/10 12:07:33;;;;;;;2.30;0.60;;;15.70;65.90;;;;;;5284814;27;20448;-81
2024/04/10 12:10:02;;;;;;;0.43;0.40;;;15.50;65.00;;;;;;5283914;27;20574;-81
2024/04/10 12:12:28;;;;;;;0.70;0.70;;;15.40;64.80;;;;;;5283299;27;20520;-81
2024/04/10 12:15:00;;;;;;;2.50;0.53;;;15.50;64.10;;;;;;5283257;27;20468;-82
2024/04/10 12:17:26;;;;;;;1.53;0.47;;;15.60;62.60;;;;;;5283012;27;20452;-81
2024/04/10 12:19:55;;;;;;;0.50;0.40;;;15.60;64.20;;;;;;5282653;27;20521;-83
2024/04/10 12:22:20;;;;;;;0.50;0.50;;;15.60;61.60;;;;;;5280451;27;20536;-79
2024/04/10 12:24:49;;;;;;;0.60;0.40;;;15.70;62.30;;;;;;5280075;27;20563;-79
2024/04/10 12:27:15;;;;;;;2.77;0.50;;;15.80;63.40;;;;;;5280971;27;20225;-78
2024/04/10 12:29:43;;;;;;;1.47;0.60;;;15.80;62.80;;;;;;5280427;27;20568;-79
2024/04/10 12:32:12;;;;;;;1.77;0.80;;;15.90;62.70;;;;;;5280126;27;20229;-79
2024/04/10 12:34:41;;;;;;;0.50;0.50;;;15.90;64.70;;;;;;5280197;27;20452;-78
2024/04/10 12:39:54;;;;;;;0.60;0.40;;;16.20;65.40;;;;;;5282548;27;20500;-79
2024/04/10 12:42:22;;;;;;;0.57;0.53;;;16.20;64.60;;;;;;5279957;27;20528;-79
2024/04/10 12:44:48;;;;;;;4.83;0.87;;;16.10;66.40;;;;;;5279995;27;20448;-79
2024/04/10 12:47:19;;;;;;;1.90;0.50;;;16.20;65.80;;;;;;5280073;27;20534;-79
2024/04/10 12:49:45;;;;;;;0.40;0.40;;;16.20;65.60;;;;;;5279748;27;20185;-79
2024/04/10 12:52:13;;;;;;;0.60;0.60;;;16.00;64.80;;;;;;5281433;27;20484;-79
2024/04/10 12:54:40;;;;;;;0.50;0.50;;;15.90;65.00;;;;;;5280485;27;20452;-79
2024/04/10 12:57:08;;;;;;;0.60;0.50;;;15.80;64.80;;;;;;5280371;27;20564;-84
2024/04/10 12:59:34;;;;;;;2.00;0.70;;;15.60;64.30;;;;;;5280232;27;20587;-79
2024/04/10 13:02:05;;;;;;;2.87;0.60;;;15.40;63.90;;;;;;5280336;27;20500;-79
2024/04/10 13:04:33;;;;;;;2.30;0.63;;;15.30;65.70;;;;;;5280055;27;20263;-79
2024/04/10 13:07:02;;;;;;;1.87;0.50;;;15.30;67.50;;;;;;5279714;27;20460;-79
2024/04/10 13:09:27;;;;;;;0.80;0.40;;;15.30;66.60;;;;;;5279738;27;20515;-79
2024/04/10 13:11:56;;;;;;;2.67;0.53;;;15.10;65.00;;;;;;5279260;27;20578;-80
2024/04/10 13:14:22;;;;;;;0.70;0.50;;;15.00;66.50;;;;;;5279025;27;20229;-79
2024/04/10 13:16:50;;;;;;;0.50;0.40;;;15.00;66.00;;;;;;5279298;27;20832;-79
2024/04/10 13:19:16;;;;;;;0.50;0.40;;;15.00;66.00;;;;;;5279360;27;20327;-80
2024/04/10 13:21:47;;;;;;;1.03;0.50;;;15.00;65.00;;;;;;5279825;27;20460;-81
2024/04/10 13:24:13;;;;;;;1.70;0.60;;;14.80;65.50;;;;;;5279550;27;20252;-79
2024/04/10 13:26:43;;;;;;;3.60;1.03;;;14.70;65.90;;;;;;5279096;27;21032;-80
2024/04/10 13:29:09;;;;;;;1.47;0.60;;;14.70;67.60;;;;;;5279406;27;20578;-79
2024/04/10 13:31:37;;;;;;;1.33;0.50;;;14.70;69.00;;;;;;5279389;27;20456;-79
2024/04/10 13:34:03;;;;;;;1.43;0.40;;;14.60;67.30;;;;;;5279361;27;20524;-80
2024/04/10 13:36:33;;;;;;;0.43;0.43;;;14.60;68.80;;;;;;5279076;27;21089;-79
2024/04/10 13:39:01;;;;;;;1.17;0.50;;;14.70;69.50;;;;;;5279303;27;20213;-79
2024/04/10 13:41:31;;;;;;;1.17;0.70;;;14.80;71.00;;;;;;5279069;27;21044;-79
2024/04/10 13:43:59;;;;;;;2.77;0.60;;;14.80;70.20;;;;;;5279342;27;21108;-80
2024/04/10 13:46:28;;;;;;;0.60;0.30;;;14.80;71.80;;;;;;5278969;27;20511;-79
2024/04/10 13:48:54;;;;;;;1.73;0.60;;;14.90;72.80;;;;;;5278867;27;20555;-79
2024/04/10 13:51:24;;;;;;;1.00;0.50;;;15.00;72.70;;;;;;5279284;27;20459;-79
2024/04/10 13:53:50;;;;;;;2.30;0.50;;;15.10;72.70;;;;;;5278236;27;21052;-78
2024/04/10 13:56:21;;;;;;;3.40;0.80;;;15.20;73.00;;;;;;5278321;27;20467;-79
2024/04/10 13:58:49;;;;;;;0.63;0.50;;;15.30;71.40;;;;;;5278616;27;20209;-79
2024/04/10 14:01:18;;;;;;;0.70;0.70;;;15.40;67.90;;;;;;5277392;27;20456;-79
2024/04/10 14:03:45;;;;;;;0.90;0.43;;;15.40;66.80;;;;;;5278454;27;20553;-79
2024/04/10 14:06:14;;;;;;;0.80;0.50;;;15.40;69.80;;;;;;5278452;27;20863;-79